Time;durP1;ratioP1;P1;durP2;ratioP2;P2;SDS_P1;SDS_P2;PMS_P1;PMS_P2;Temp;Humidity;BMP_temperature;BMP_pressure;BME280_temperature;BME280_humidity;BME280_pressure;Samples;Min_cycle;Max_cycle;Signal;HPM_P1;HPM_P2
2021/06/25 00:01:43;;;;;;;11.23;10.13;;;17.00;99.90;;;;;;5020685;28;20497;-71
2021/06/25 00:04:09;;;;;;;11.30;10.30;;;17.00;99.90;;;;;;5010628;28;20239;-71
2021/06/25 00:06:34;;;;;;;11.27;10.10;;;17.00;99.90;;;;;;5013459;28;20454;-71
2021/06/25 00:09:00;;;;;;;10.97;9.80;;;17.00;99.90;;;;;;5015592;28;20188;-72
2021/06/25 00:11:25;;;;;;;10.90;9.90;;;16.90;99.90;;;;;;4997874;28;20215;-72
2021/06/25 00:13:51;;;;;;;10.40;9.40;;;16.90;99.90;;;;;;5016178;28;20222;-71
2021/06/25 00:16:17;;;;;;;11.20;10.20;;;16.90;99.90;;;;;;5015572;28;20227;-71
2021/06/25 00:18:43;;;;;;;10.90;9.80;;;16.90;99.90;;;;;;5002809;28;20270;-71
2021/06/25 00:21:09;;;;;;;10.33;9.43;;;16.90;99.90;;;;;;5017502;28;20427;-72
2021/06/25 00:23:34;;;;;;;10.30;9.30;;;16.90;99.90;;;;;;5002624;28;20235;-71
2021/06/25 00:26:00;;;;;;;10.10;9.10;;;16.90;99.90;;;;;;5015692;28;20674;-71
2021/06/25 00:28:26;;;;;;;11.27;10.23;;;16.90;99.90;;;;;;5005481;28;20183;-70
2021/06/25 00:30:53;;;;;;;10.30;9.40;;;16.90;99.90;;;;;;5020947;28;20195;-72
2021/06/25 00:33:18;;;;;;;10.80;9.80;;;16.90;99.90;;;;;;5012240;28;20959;-70
2021/06/25 00:35:44;;;;;;;9.73;8.90;;;16.80;99.90;;;;;;5012640;28;20521;-71
2021/06/25 00:38:10;;;;;;;10.53;9.53;;;16.70;99.90;;;;;;5018071;28;20187;-73
2021/06/25 00:40:35;;;;;;;10.10;9.20;;;16.70;99.90;;;;;;5018331;28;20552;-70
2021/06/25 00:43:02;;;;;;;11.03;10.03;;;16.70;99.90;;;;;;5015578;28;20210;-70
2021/06/25 00:45:28;;;;;;;10.83;9.70;;;16.80;99.90;;;;;;5015663;28;20206;-69
2021/06/25 00:47:54;;;;;;;10.00;8.97;;;16.80;99.90;;;;;;5015591;28;20804;-68
2021/06/25 00:50:22;;;;;;;10.27;9.30;;;16.70;99.90;;;;;;5004906;28;20278;-69
2021/06/25 00:52:52;;;;;;;10.53;9.53;;;16.70;99.90;;;;;;5018787;28;20305;-72
2021/06/25 00:55:18;;;;;;;10.70;9.03;;;16.70;99.90;;;;;;5014652;28;20459;-70
2021/06/25 00:57:44;;;;;;;12.40;10.70;;;16.70;99.90;;;;;;5013413;28;20848;-71
2021/06/25 01:00:10;;;;;;;11.50;10.50;;;16.70;99.90;;;;;;5014399;28;20546;-69
2021/06/25 01:02:36;;;;;;;10.70;9.60;;;16.70;99.90;;;;;;5011241;28;20203;-71
2021/06/25 01:05:04;;;;;;;10.13;9.23;;;16.70;99.90;;;;;;5020028;28;20487;-69
2021/06/25 01:07:30;;;;;;;10.87;9.77;;;16.70;99.90;;;;;;5000444;28;20326;-70
2021/06/25 01:09:57;;;;;;;11.33;10.23;;;16.70;99.90;;;;;;5020383;28;20763;-71
2021/06/25 01:12:22;;;;;;;13.60;12.30;;;16.70;99.90;;;;;;5018938;28;20450;-71
2021/06/25 01:14:49;;;;;;;12.30;11.20;;;16.80;99.90;;;;;;5019357;28;20446;-71
2021/06/25 01:17:33;;;;;;;13.23;11.90;;;16.70;99.90;;;;;;5007152;28;20196;-71
2021/06/25 01:20:03;;;;;;;12.03;10.93;;;16.70;99.90;;;;;;5014285;28;20612;-70
2021/06/25 01:22:39;;;;;;;12.80;11.50;;;16.70;99.90;;;;;;5001189;28;20546;-71
2021/06/25 01:25:06;;;;;;;12.90;11.50;;;16.70;99.90;;;;;;5018470;28;20463;-70
2021/06/25 01:27:32;;;;;;;13.27;11.97;;;16.70;99.90;;;;;;5015275;28;20441;-70
2021/06/25 01:29:59;;;;;;;15.03;13.23;;;16.70;99.90;;;;;;5016282;28;20429;-68
2021/06/25 01:32:25;;;;;;;14.67;13.07;;;16.80;99.90;;;;;;5015156;28;20479;-71
2021/06/25 01:34:51;;;;;;;14.27;12.83;;;16.80;99.90;;;;;;5001302;28;20450;-71
2021/06/25 01:37:17;;;;;;;16.73;14.00;;;16.90;99.90;;;;;;5018311;28;20451;-70
2021/06/25 01:39:43;;;;;;;15.60;13.90;;;16.80;99.90;;;;;;5013824;28;20668;-68
2021/06/25 01:42:10;;;;;;;17.07;13.63;;;16.70;99.90;;;;;;5004944;28;20192;-69
2021/06/25 01:44:36;;;;;;;14.80;13.40;;;16.80;99.90;;;;;;5018017;28;20200;-71
2021/06/25 01:47:03;;;;;;;15.33;13.90;;;16.80;99.90;;;;;;5015890;28;20480;-72
2021/06/25 01:49:29;;;;;;;14.87;13.20;;;16.70;99.90;;;;;;5016756;28;20438;-73
2021/06/25 01:51:54;;;;;;;15.60;13.97;;;16.80;99.90;;;;;;5016010;28;20437;-70
2021/06/25 01:54:20;;;;;;;18.33;15.53;;;16.70;99.90;;;;;;5018414;28;20445;-71
2021/06/25 01:56:46;;;;;;;16.57;14.50;;;16.80;99.90;;;;;;5020075;28;20196;-71
2021/06/25 01:59:12;;;;;;;15.80;14.10;;;16.70;99.90;;;;;;5015797;28;20226;-72
2021/06/25 02:01:37;;;;;;;17.10;15.10;;;16.80;99.90;;;;;;5002381;28;20188;-71
2021/06/25 02:04:03;;;;;;;18.87;15.93;;;16.70;99.90;;;;;;5013940;28;20458;-70
2021/06/25 02:06:29;;;;;;;16.63;14.60;;;16.70;99.90;;;;;;5019344;28;20689;-71
2021/06/25 02:08:55;;;;;;;16.90;15.10;;;16.70;99.90;;;;;;5017343;28;20206;-71
2021/06/25 02:11:23;;;;;;;16.97;15.27;;;16.70;99.90;;;;;;5011435;28;20329;-71
2021/06/25 02:13:49;;;;;;;16.63;15.03;;;16.70;99.90;;;;;;5008000;28;20626;-71
2021/06/25 02:16:14;;;;;;;18.30;16.50;;;16.70;99.90;;;;;;5016386;28;20449;-70
2021/06/25 02:18:40;;;;;;;18.40;16.53;;;16.70;99.90;;;;;;5011004;28;21157;-71
2021/06/25 02:21:06;;;;;;;18.77;16.87;;;16.70;99.90;;;;;;5013383;28;20312;-71
2021/06/25 02:23:31;;;;;;;18.37;16.37;;;16.70;99.90;;;;;;5007775;28;20234;-70
2021/06/25 02:25:57;;;;;;;16.97;15.37;;;16.70;99.90;;;;;;5016635;28;20180;-71
2021/06/25 02:28:23;;;;;;;18.90;16.37;;;16.70;99.90;;;;;;5007675;28;20180;-70
2021/06/25 02:30:49;;;;;;;18.63;16.60;;;16.70;99.90;;;;;;5015555;28;20603;-71
2021/06/25 02:33:14;;;;;;;20.07;16.63;;;16.70;99.90;;;;;;5011344;28;20269;-71
2021/06/25 02:35:40;;;;;;;21.27;17.67;;;16.70;99.90;;;;;;5014853;28;20445;-71
2021/06/25 02:38:06;;;;;;;18.43;16.63;;;16.70;99.90;;;;;;5012288;28;20226;-71
2021/06/25 02:40:31;;;;;;;17.27;15.63;;;16.60;99.90;;;;;;5008541;28;20294;-71
2021/06/25 02:42:57;;;;;;;17.37;15.67;;;16.70;99.90;;;;;;4993975;28;20300;-71
2021/06/25 02:45:22;;;;;;;16.33;14.67;;;16.60;99.90;;;;;;5004102;28;20179;-70
2021/06/25 02:47:48;;;;;;;15.67;14.07;;;16.70;99.90;;;;;;5013435;28;20183;-71
2021/06/25 02:50:15;;;;;;;18.77;16.90;;;16.70;99.90;;;;;;5016221;28;20189;-71
2021/06/25 02:52:41;;;;;;;17.53;15.60;;;16.70;99.90;;;;;;5005229;28;20225;-69
2021/06/25 02:55:08;;;;;;;17.70;15.90;;;16.70;99.90;;;;;;5018325;28;20468;-71
2021/06/25 02:57:34;;;;;;;18.47;16.57;;;16.70;99.90;;;;;;5015661;28;20464;-70
2021/06/25 03:00:00;;;;;;;21.47;19.17;;;16.70;99.90;;;;;;5018529;28;20477;-70
2021/06/25 03:02:26;;;;;;;17.80;16.03;;;16.70;99.90;;;;;;5013079;28;20207;-71
2021/06/25 03:04:51;;;;;;;19.77;17.70;;;16.70;99.90;;;;;;5013880;28;20191;-72
2021/06/25 03:07:17;;;;;;;20.23;18.10;;;16.70;99.90;;;;;;5012649;28;20431;-71
2021/06/25 03:09:42;;;;;;;21.93;19.67;;;16.70;99.90;;;;;;5013843;28;20230;-72
2021/06/25 03:12:09;;;;;;;22.30;19.00;;;16.70;99.90;;;;;;5013775;28;20202;-70
2021/06/25 03:14:34;;;;;;;21.23;19.13;;;16.70;99.90;;;;;;5016576;28;20209;-70
2021/06/25 03:17:00;;;;;;;19.10;17.10;;;16.80;99.90;;;;;;5015644;28;20430;-70
2021/06/25 03:19:26;;;;;;;21.63;19.20;;;16.80;99.90;;;;;;5018607;28;20207;-71
2021/06/25 03:21:51;;;;;;;21.10;19.10;;;16.80;99.90;;;;;;5012794;28;20488;-69
2021/06/25 03:24:17;;;;;;;20.37;18.37;;;16.70;99.90;;;;;;5012716;28;20229;-71
2021/06/25 03:26:43;;;;;;;20.10;18.10;;;16.70;99.90;;;;;;5011362;28;20544;-70
2021/06/25 03:29:08;;;;;;;22.70;19.30;;;16.70;99.90;;;;;;5021811;28;20545;-70
2021/06/25 03:31:34;;;;;;;19.67;17.57;;;16.70;99.90;;;;;;5015634;28;20192;-70
2021/06/25 03:34:00;;;;;;;20.57;18.47;;;16.70;99.90;;;;;;5016815;28;20215;-72
2021/06/25 03:36:25;;;;;;;19.83;17.83;;;16.60;99.90;;;;;;5015882;28;20718;-72
2021/06/25 03:38:51;;;;;;;20.57;18.57;;;16.60;99.90;;;;;;5020579;28;20659;-71
2021/06/25 03:41:16;;;;;;;20.57;18.40;;;16.60;99.90;;;;;;5011677;28;20238;-69
2021/06/25 03:43:42;;;;;;;20.20;18.30;;;16.70;99.90;;;;;;5021123;28;20266;-70
2021/06/25 03:46:08;;;;;;;20.33;18.27;;;16.70;99.90;;;;;;5012811;28;20231;-72
2021/06/25 03:48:34;;;;;;;21.17;19.07;;;16.70;99.90;;;;;;5018590;28;20585;-71
2021/06/25 03:51:00;;;;;;;22.13;19.80;;;16.70;99.90;;;;;;5016152;28;20497;-72
2021/06/25 03:53:26;;;;;;;19.90;17.80;;;16.70;99.90;;;;;;5018149;28;20689;-72
2021/06/25 03:56:12;;;;;;;22.47;18.43;;;16.70;99.90;;;;;;5018743;28;20283;-71
2021/06/25 03:58:43;;;;;;;21.80;19.50;;;16.70;99.90;;;;;;5008378;28;20208;-71
2021/06/25 04:01:09;;;;;;;18.80;16.80;;;16.70;99.90;;;;;;5009808;28;20435;-71
2021/06/25 04:03:36;;;;;;;17.37;15.37;;;16.70;99.90;;;;;;5021881;28;20477;-69
2021/06/25 04:06:02;;;;;;;17.80;16.00;;;16.70;99.90;;;;;;5017986;28;20481;-69
2021/06/25 04:08:30;;;;;;;18.70;15.57;;;16.70;99.90;;;;;;5020998;28;20536;-70
2021/06/25 04:10:55;;;;;;;16.33;14.83;;;16.70;99.90;;;;;;5018042;28;20443;-70
2021/06/25 04:13:22;;;;;;;17.77;15.97;;;16.70;99.90;;;;;;5019966;28;20446;-70
2021/06/25 04:15:47;;;;;;;15.87;14.17;;;16.70;99.90;;;;;;5015066;28;20195;-70
2021/06/25 04:18:14;;;;;;;17.27;15.53;;;16.70;99.90;;;;;;5016681;28;20505;-71
2021/06/25 04:20:40;;;;;;;17.07;15.20;;;16.70;99.90;;;;;;5018500;28;20211;-70
2021/06/25 04:23:05;;;;;;;15.90;14.40;;;16.60;99.90;;;;;;5004533;28;20457;-69
2021/06/25 04:25:31;;;;;;;16.80;15.00;;;16.70;99.90;;;;;;5022781;28;20501;-70
2021/06/25 04:27:57;;;;;;;16.67;15.17;;;16.70;99.90;;;;;;5017598;28;20180;-70
2021/06/25 04:30:22;;;;;;;16.97;15.27;;;16.80;99.90;;;;;;5012246;28;20191;-70
2021/06/25 04:32:48;;;;;;;18.37;16.37;;;16.80;99.90;;;;;;5016016;28;20200;-71
2021/06/25 04:35:14;;;;;;;16.07;14.57;;;16.90;99.90;;;;;;5017103;28;20568;-72
2021/06/25 04:37:40;;;;;;;18.90;16.90;;;16.90;99.90;;;;;;5021885;28;20205;-70
2021/06/25 04:40:06;;;;;;;17.30;15.60;;;16.90;99.90;;;;;;5011064;28;20287;-69
2021/06/25 04:42:32;;;;;;;18.77;16.97;;;16.90;99.90;;;;;;5021111;28;20460;-70
2021/06/25 04:44:58;;;;;;;20.20;18.13;;;16.90;99.90;;;;;;5016112;28;20426;-70
2021/06/25 04:47:25;;;;;;;21.60;16.37;;;16.90;99.90;;;;;;5017153;28;20234;-69
2021/06/25 04:49:50;;;;;;;20.03;18.20;;;16.90;99.90;;;;;;5001538;28;20195;-69
2021/06/25 04:52:17;;;;;;;20.37;18.47;;;16.90;99.90;;;;;;5019242;28;20427;-69
2021/06/25 04:54:42;;;;;;;20.20;17.10;;;16.90;99.90;;;;;;5020857;28;20222;-70
2021/06/25 04:57:08;;;;;;;20.63;18.63;;;17.00;99.90;;;;;;5019779;28;20450;-70
2021/06/25 04:59:34;;;;;;;20.63;18.63;;;17.00;99.90;;;;;;5020332;28;20214;-70
2021/06/25 05:01:59;;;;;;;20.77;18.67;;;17.10;99.90;;;;;;5007768;28;20194;-71
2021/06/25 05:04:25;;;;;;;22.17;19.97;;;17.10;99.90;;;;;;5004433;28;20191;-69
2021/06/25 05:06:50;;;;;;;21.67;19.57;;;17.10;99.90;;;;;;5012624;28;20190;-70
2021/06/25 05:09:16;;;;;;;22.83;20.43;;;17.10;99.90;;;;;;5013857;28;20238;-70
2021/06/25 05:11:42;;;;;;;23.57;21.17;;;17.10;99.90;;;;;;5017644;28;20274;-69
2021/06/25 05:14:08;;;;;;;29.20;20.70;;;17.20;99.90;;;;;;5012071;28;20212;-70
2021/06/25 05:16:34;;;;;;;25.20;21.63;;;17.20;99.90;;;;;;5017191;28;20191;-69
2021/06/25 05:19:00;;;;;;;25.53;23.03;;;17.20;99.90;;;;;;5016162;28;20473;-69
2021/06/25 05:21:26;;;;;;;27.03;24.20;;;17.10;99.90;;;;;;5015337;28;20487;-68
2021/06/25 05:23:52;;;;;;;29.57;26.53;;;17.10;99.90;;;;;;4991169;28;20259;-70
2021/06/25 05:26:19;;;;;;;27.37;24.20;;;17.00;99.90;;;;;;5019090;28;20175;-70
2021/06/25 05:28:44;;;;;;;33.23;29.63;;;17.00;99.90;;;;;;5013255;28;20270;-70
2021/06/25 05:31:10;;;;;;;41.40;28.87;;;17.00;99.90;;;;;;5018546;28;20498;-70
2021/06/25 05:33:36;;;;;;;39.20;30.13;;;17.00;99.90;;;;;;5012443;28;20257;-70
2021/06/25 05:36:02;;;;;;;49.83;29.70;;;17.10;99.90;;;;;;5019055;28;20183;-69
2021/06/25 05:38:27;;;;;;;37.33;28.70;;;17.10;99.90;;;;;;5013017;28;20232;-68
2021/06/25 05:40:53;;;;;;;31.20;27.77;;;17.00;99.90;;;;;;5019535;28;20582;-69
2021/06/25 05:43:19;;;;;;;37.17;28.80;;;17.10;99.90;;;;;;5006001;28;20204;-69
2021/06/25 05:45:45;;;;;;;32.57;29.07;;;17.20;99.90;;;;;;5010579;28;20187;-70
2021/06/25 05:48:11;;;;;;;33.77;29.00;;;17.20;99.90;;;;;;5017710;28;20432;-69
2021/06/25 05:50:37;;;;;;;33.57;30.00;;;17.30;99.90;;;;;;5019120;28;20223;-70
2021/06/25 05:53:04;;;;;;;36.07;31.80;;;17.30;99.90;;;;;;5015213;28;20203;-69
2021/06/25 05:55:30;;;;;;;41.13;33.00;;;17.40;99.90;;;;;;5018743;28;20508;-70
2021/06/25 05:57:56;;;;;;;37.20;32.20;;;17.50;99.90;;;;;;5018919;28;20580;-69
2021/06/25 06:00:21;;;;;;;36.20;32.00;;;17.50;99.90;;;;;;5014421;28;20469;-69
2021/06/25 06:02:47;;;;;;;36.57;32.63;;;17.40;99.90;;;;;;5007409;28;20199;-70
2021/06/25 06:05:13;;;;;;;36.93;33.03;;;17.40;99.90;;;;;;5016189;28;20187;-71
2021/06/25 06:07:39;;;;;;;38.27;33.40;;;17.30;99.90;;;;;;5015069;28;20187;-69
2021/06/25 06:10:06;;;;;;;36.67;29.10;;;17.30;99.90;;;;;;5018199;28;20437;-70
2021/06/25 06:12:32;;;;;;;36.87;32.87;;;17.40;99.90;;;;;;5010061;28;20211;-69
2021/06/25 06:14:57;;;;;;;43.00;31.93;;;17.40;99.90;;;;;;5010614;28;20458;-70
2021/06/25 06:17:23;;;;;;;47.83;35.33;;;17.40;99.90;;;;;;5002971;28;20203;-68
2021/06/25 06:19:53;;;;;;;45.00;36.90;;;17.60;99.90;;;;;;5014932;28;20504;-68
2021/06/25 06:33:40;;;;;;;39.70;33.47;;;17.70;99.90;;;;;;5017608;28;20654;-69
2021/06/25 06:36:22;;;;;;;40.50;35.87;;;17.70;99.90;;;;;;5000010;28;20455;-69
2021/06/25 06:38:49;;;;;;;39.47;35.20;;;17.80;99.90;;;;;;5013949;28;20424;-68
2021/06/25 06:41:15;;;;;;;43.63;36.00;;;17.70;99.90;;;;;;5018334;28;20771;-68
2021/06/25 06:43:41;;;;;;;40.53;36.23;;;17.80;99.90;;;;;;5010500;28;20580;-68
2021/06/25 06:46:09;;;;;;;48.47;36.47;;;17.90;99.90;;;;;;5012204;28;20188;-68
2021/06/25 06:48:36;;;;;;;41.47;37.07;;;17.90;99.90;;;;;;5011527;28;20195;-68
2021/06/25 06:51:02;;;;;;;37.10;32.63;;;18.10;99.90;;;;;;5022041;28;20438;-68
2021/06/25 06:53:27;;;;;;;37.13;32.37;;;18.10;99.90;;;;;;5015420;28;21019;-70
2021/06/25 06:55:53;;;;;;;38.57;34.60;;;18.10;99.90;;;;;;5022097;28;20636;-68
2021/06/25 06:58:18;;;;;;;37.17;33.13;;;18.10;99.90;;;;;;5003238;28;20601;-70
2021/06/25 07:00:44;;;;;;;32.10;28.70;;;18.10;99.90;;;;;;5010821;28;20553;-68
2021/06/25 07:03:09;;;;;;;36.90;31.00;;;18.10;99.90;;;;;;5020067;28;20630;-68
2021/06/25 07:05:35;;;;;;;34.33;30.73;;;18.10;99.90;;;;;;5015869;28;20230;-68
2021/06/25 07:08:00;;;;;;;34.77;31.27;;;18.10;99.90;;;;;;5016266;28;20210;-68
2021/06/25 07:10:26;;;;;;;35.47;31.80;;;18.10;99.90;;;;;;5016167;28;20649;-68
2021/06/25 07:12:52;;;;;;;33.00;29.70;;;18.20;99.90;;;;;;5022212;28;20221;-68
2021/06/25 07:15:17;;;;;;;35.67;31.73;;;18.30;99.90;;;;;;5016135;28;20195;-68
2021/06/25 07:17:43;;;;;;;33.63;30.37;;;18.30;99.90;;;;;;5015169;28;20203;-68
2021/06/25 07:20:09;;;;;;;35.40;32.10;;;18.50;99.90;;;;;;5013279;28;20211;-69
2021/06/25 07:22:34;;;;;;;34.90;31.20;;;18.60;99.90;;;;;;5003668;28;20216;-68
2021/06/25 07:25:00;;;;;;;34.67;31.07;;;18.60;99.90;;;;;;5021704;28;20590;-69
2021/06/25 07:27:26;;;;;;;43.23;34.23;;;18.60;99.90;;;;;;5007541;28;20193;-70
2021/06/25 07:29:51;;;;;;;37.20;33.30;;;18.60;99.90;;;;;;5014306;28;20198;-70
2021/06/25 07:32:17;;;;;;;36.43;32.47;;;18.40;99.90;;;;;;5017414;28;20663;-69
2021/06/25 07:34:42;;;;;;;39.50;32.53;;;18.20;99.90;;;;;;5001367;28;20616;-70
2021/06/25 07:37:08;;;;;;;43.07;35.07;;;18.20;99.90;;;;;;5013739;28;20257;-70
2021/06/25 07:39:34;;;;;;;38.67;34.63;;;18.30;99.90;;;;;;5020726;28;20567;-69
2021/06/25 07:41:59;;;;;;;38.93;34.77;;;18.30;99.90;;;;;;5012726;28;20216;-71
2021/06/25 07:44:25;;;;;;;36.90;33.23;;;18.30;99.90;;;;;;4996364;28;20204;-71
2021/06/25 07:46:50;;;;;;;41.60;35.93;;;18.20;99.90;;;;;;5010869;28;20187;-70
2021/06/25 07:49:16;;;;;;;43.43;36.23;;;18.20;99.90;;;;;;5007280;28;20243;-69
2021/06/25 07:51:42;;;;;;;40.40;36.00;;;18.10;99.90;;;;;;5005288;28;20267;-69
2021/06/25 07:54:07;;;;;;;43.23;36.57;;;18.10;99.90;;;;;;5008197;28;20212;-69
2021/06/25 07:56:33;;;;;;;39.47;35.27;;;18.10;99.90;;;;;;5021563;28;20188;-71
2021/06/25 07:58:59;;;;;;;40.03;35.73;;;18.10;99.90;;;;;;5013496;28;20182;-71
2021/06/25 08:01:25;;;;;;;37.00;33.10;;;18.10;99.90;;;;;;5013865;28;20230;-70
2021/06/25 08:03:51;;;;;;;36.97;33.00;;;18.20;99.90;;;;;;5015908;28;20434;-70
2021/06/25 08:06:17;;;;;;;37.77;33.97;;;18.30;99.90;;;;;;5020729;28;20415;-70
2021/06/25 08:08:43;;;;;;;35.40;31.60;;;18.40;99.90;;;;;;5020450;28;20498;-71
2021/06/25 08:11:08;;;;;;;34.77;30.17;;;18.40;99.90;;;;;;5019501;28;20184;-69
2021/06/25 08:13:34;;;;;;;33.67;30.03;;;18.40;99.90;;;;;;5017937;28;20200;-69
2021/06/25 08:16:00;;;;;;;32.30;29.10;;;18.60;99.90;;;;;;5017516;28;20267;-69
2021/06/25 08:18:25;;;;;;;36.33;30.80;;;18.70;99.90;;;;;;4998544;28;20188;-69
2021/06/25 08:20:51;;;;;;;34.63;30.80;;;18.80;99.90;;;;;;5019065;28;20246;-69
2021/06/25 08:23:17;;;;;;;34.43;30.83;;;18.90;99.90;;;;;;5007052;28;20652;-68
2021/06/25 08:25:42;;;;;;;33.77;30.20;;;19.00;99.90;;;;;;5019987;28;20179;-69
2021/06/25 08:28:09;;;;;;;32.73;29.20;;;19.00;99.90;;;;;;5017789;28;20209;-68
2021/06/25 08:30:35;;;;;;;33.10;29.90;;;19.10;99.90;;;;;;5024475;28;20275;-68
2021/06/25 08:33:00;;;;;;;33.97;30.60;;;19.30;99.90;;;;;;5015377;28;20537;-68
2021/06/25 08:35:26;;;;;;;34.00;30.53;;;19.40;99.90;;;;;;5006895;28;20198;-68
2021/06/25 08:37:53;;;;;;;39.83;30.70;;;19.40;99.90;;;;;;5018995;28;20183;-68
2021/06/25 08:40:18;;;;;;;34.37;30.63;;;19.40;99.90;;;;;;5017896;28;20708;-68
2021/06/25 08:42:44;;;;;;;33.00;29.80;;;19.60;99.90;;;;;;5021367;28;20453;-68
2021/06/25 08:45:11;;;;;;;33.70;30.10;;;19.70;99.90;;;;;;5013989;28;20187;-69
2021/06/25 08:47:43;;;;;;;34.33;29.77;;;19.70;99.90;;;;;;5014441;28;20203;-67
2021/06/25 08:50:11;;;;;;;33.33;30.00;;;19.90;99.90;;;;;;5017148;28;20594;-68
2021/06/25 08:52:37;;;;;;;33.63;29.83;;;19.80;99.90;;;;;;5021055;28;20456;-68
2021/06/25 08:55:03;;;;;;;34.23;30.70;;;19.70;99.90;;;;;;5007418;28;20428;-68
2021/06/25 08:57:33;;;;;;;31.33;28.30;;;19.70;99.90;;;;;;5020972;28;20195;-67
2021/06/25 08:59:59;;;;;;;34.70;30.90;;;19.70;99.90;;;;;;5021128;28;20457;-67
2021/06/25 09:02:32;;;;;;;33.50;30.00;;;19.80;99.90;;;;;;5017486;28;20460;-68
2021/06/25 09:04:58;;;;;;;32.40;29.00;;;19.80;99.90;;;;;;5018675;28;20266;-68
2021/06/25 09:07:42;;;;;;;34.80;31.10;;;19.80;99.90;;;;;;5014285;28;20445;-67
2021/06/25 09:10:12;;;;;;;35.87;32.10;;;19.80;99.90;;;;;;5020319;28;20175;-68
2021/06/25 09:12:38;;;;;;;95.90;41.90;;;19.80;99.90;;;;;;5012369;28;20458;-67
2021/06/25 09:15:07;;;;;;;36.60;32.83;;;19.90;99.90;;;;;;5000300;28;20431;-67
2021/06/25 09:17:34;;;;;;;35.07;31.50;;;19.90;99.90;;;;;;5012682;28;20437;-67
2021/06/25 09:20:05;;;;;;;36.40;32.67;;;19.90;99.90;;;;;;5022109;28;20480;-67
2021/06/25 09:22:30;;;;;;;34.77;30.70;;;19.90;99.90;;;;;;5006421;28;20474;-68
2021/06/25 09:25:07;;;;;;;34.23;29.33;;;20.00;99.90;;;;;;5019796;28;20418;-68
2021/06/25 09:27:34;;;;;;;38.03;34.13;;;20.00;99.90;;;;;;4999551;28;20180;-67
2021/06/25 09:30:09;;;;;;;36.40;32.77;;;19.90;99.90;;;;;;5008043;28;20528;-67
2021/06/25 09:32:39;;;;;;;33.90;30.43;;;20.00;99.90;;;;;;5015632;28;20489;-68
2021/06/25 09:35:13;;;;;;;35.73;31.60;;;20.00;99.90;;;;;;5017190;28;20851;-67
2021/06/25 09:37:47;;;;;;;32.90;29.47;;;20.10;99.90;;;;;;5011163;28;20433;-68
2021/06/25 09:40:14;;;;;;;33.63;30.13;;;20.20;99.90;;;;;;5019668;28;20466;-70
2021/06/25 09:42:42;;;;;;;31.97;28.77;;;20.30;99.90;;;;;;5016732;28;20460;-69
2021/06/25 09:45:13;;;;;;;33.63;29.20;;;20.30;99.90;;;;;;5001287;28;20439;-68
2021/06/25 09:47:43;;;;;;;36.30;30.40;;;20.30;99.90;;;;;;5009854;28;20418;-68
2021/06/25 09:50:12;;;;;;;31.47;28.33;;;20.20;99.90;;;;;;5007324;28;20462;-67
2021/06/25 09:52:59;;;;;;;30.50;26.80;;;20.40;99.90;;;;;;5020040;28;20997;-68
2021/06/25 09:55:28;;;;;;;37.70;33.80;;;20.50;99.90;;;;;;5017629;28;20414;-68
2021/06/25 09:58:14;;;;;;;37.73;33.83;;;20.50;99.90;;;;;;5019612;28;20449;-68
2021/06/25 10:03:32;;;;;;;40.27;35.37;;;20.10;99.90;;;;;;5010397;28;20426;-68
2021/06/25 10:06:05;;;;;;;39.50;35.50;;;20.00;99.90;;;;;;5016217;28;20414;-68
2021/06/25 10:08:30;;;;;;;39.50;35.23;;;20.10;99.90;;;;;;5009818;28;20974;-68
2021/06/25 10:10:56;;;;;;;41.53;37.30;;;20.00;99.90;;;;;;5014605;28;20430;-69
2021/06/25 10:13:22;;;;;;;39.57;34.43;;;20.10;99.90;;;;;;5023732;28;20266;-71
2021/06/25 10:15:47;;;;;;;37.60;33.73;;;20.20;99.90;;;;;;5005347;28;20185;-67
2021/06/25 10:18:13;;;;;;;36.80;33.00;;;20.20;99.90;;;;;;5011744;28;20222;-68
2021/06/25 10:20:39;;;;;;;39.27;35.20;;;20.30;99.90;;;;;;5009971;28;20269;-70
2021/06/25 10:23:07;;;;;;;37.87;34.03;;;20.40;99.90;;;;;;4997928;28;20240;-68
2021/06/25 10:25:33;;;;;;;39.17;35.10;;;20.60;99.90;;;;;;5020271;28;20270;-69
2021/06/25 10:28:00;;;;;;;38.07;34.20;;;20.80;99.90;;;;;;5009280;28;20450;-69
2021/06/25 10:30:28;;;;;;;39.23;35.10;;;20.80;99.90;;;;;;5011715;28;20441;-69
2021/06/25 10:32:55;;;;;;;39.30;35.20;;;21.10;99.90;;;;;;5011867;28;20445;-69
2021/06/25 10:35:21;;;;;;;38.40;34.57;;;21.20;99.90;;;;;;5017748;28;20492;-69
2021/06/25 10:37:47;;;;;;;37.03;33.10;;;21.20;99.90;;;;;;5018198;28;20508;-70
2021/06/25 10:40:27;;;;;;;37.07;33.07;;;21.20;99.90;;;;;;5015335;28;20750;-68
2021/06/25 10:42:54;;;;;;;36.80;33.10;;;21.30;99.90;;;;;;5009998;28;20895;-69
2021/06/25 10:45:43;;;;;;;37.93;34.17;;;21.40;99.90;;;;;;5013892;28;20434;-68
2021/06/25 10:48:09;;;;;;;37.77;33.87;;;21.30;99.90;;;;;;5006304;28;20434;-69
2021/06/25 10:50:35;;;;;;;38.30;34.10;;;21.30;99.90;;;;;;5011199;28;20832;-69
2021/06/25 10:53:08;;;;;;;36.33;32.57;;;21.50;99.90;;;;;;5016722;28;20298;-69
2021/06/25 10:55:44;;;;;;;33.60;30.30;;;21.40;99.90;;;;;;5019171;28;20440;-69
2021/06/25 10:58:12;;;;;;;33.70;30.30;;;21.30;99.90;;;;;;5017636;28;20421;-69
2021/06/25 11:00:38;;;;;;;35.03;31.47;;;21.40;99.90;;;;;;5004267;28;20888;-68
2021/06/25 11:03:04;;;;;;;33.23;29.87;;;21.40;99.90;;;;;;5016467;28;20453;-69
2021/06/25 11:05:34;;;;;;;36.63;32.90;;;21.50;99.90;;;;;;5015090;28;20209;-70
2021/06/25 11:08:13;;;;;;;35.53;31.93;;;21.40;99.90;;;;;;5020318;28;20414;-69
2021/06/25 11:10:47;;;;;;;35.03;31.33;;;21.40;99.90;;;;;;5010514;28;20447;-70
2021/06/25 11:13:13;;;;;;;36.53;32.43;;;21.40;99.90;;;;;;5022728;28;20528;-71
2021/06/25 11:15:43;;;;;;;31.77;28.37;;;21.70;99.90;;;;;;5013036;28;21057;-73
2021/06/25 11:18:23;;;;;;;30.60;27.50;;;21.50;99.90;;;;;;5010865;28;20198;-72
2021/06/25 11:20:50;;;;;;;29.17;26.37;;;21.60;99.90;;;;;;5014458;28;20458;-71
2021/06/25 11:23:23;;;;;;;32.17;29.00;;;21.70;99.90;;;;;;5002967;28;20469;-71
2021/06/25 11:26:00;;;;;;;30.57;27.50;;;21.90;99.90;;;;;;5017622;28;20423;-71
2021/06/25 11:28:38;;;;;;;31.07;28.00;;;21.90;99.90;;;;;;4998848;28;20422;-72
2021/06/25 11:31:04;;;;;;;28.73;25.83;;;22.00;99.90;;;;;;5018637;28;20509;-72
2021/06/25 11:34:01;;;;;;;32.70;29.60;;;22.20;99.90;;;;;;5010488;28;21037;-72
2021/06/25 11:36:50;;;;;;;29.70;26.67;;;22.40;99.90;;;;;;5008240;28;20452;-72
2021/06/25 11:39:35;;;;;;;29.67;26.87;;;22.50;99.90;;;;;;5019266;28;20472;-71
2021/06/25 11:42:11;;;;;;;29.30;26.67;;;22.70;99.90;;;;;;5010701;28;20961;-71
2021/06/25 11:44:43;;;;;;;28.80;25.93;;;22.70;99.90;;;;;;5007362;28;20838;-71
2021/06/25 11:47:11;;;;;;;27.83;25.07;;;22.80;99.90;;;;;;5002695;28;20480;-72
2021/06/25 11:49:43;;;;;;;29.73;26.70;;;22.70;99.90;;;;;;5021528;28;20429;-72
2021/06/25 11:52:10;;;;;;;29.87;26.87;;;22.80;99.90;;;;;;5008690;28;20426;-72
2021/06/25 11:54:37;;;;;;;28.17;25.47;;;22.70;99.90;;;;;;5019066;28;20760;-75
2021/06/25 11:57:04;;;;;;;28.43;25.57;;;22.70;99.90;;;;;;5013736;28;20462;-72
2021/06/25 11:59:29;;;;;;;29.50;26.50;;;22.90;99.90;;;;;;5017033;28;20663;-70
2021/06/25 12:02:00;;;;;;;27.43;24.63;;;22.90;99.90;;;;;;5009325;28;20504;-72
2021/06/25 12:04:43;;;;;;;27.87;24.97;;;22.80;99.90;;;;;;4998669;28;20554;-71
2021/06/25 12:07:12;;;;;;;28.23;25.57;;;22.80;99.90;;;;;;5017121;28;20867;-71
2021/06/25 12:09:42;;;;;;;29.73;26.90;;;23.10;99.90;;;;;;5016972;28;20472;-71
2021/06/25 12:12:09;;;;;;;30.30;27.27;;;23.20;99.90;;;;;;5008066;28;20469;-71
2021/06/25 12:14:43;;;;;;;35.20;31.60;;;23.00;99.90;;;;;;5014697;28;20434;-73
2021/06/25 12:17:09;;;;;;;29.43;26.40;;;22.70;99.90;;;;;;5014075;28;20434;-69
2021/06/25 12:19:35;;;;;;;30.30;26.83;;;22.70;99.90;;;;;;5018856;28;20973;-70
2021/06/25 12:22:06;;;;;;;30.73;27.50;;;22.60;99.90;;;;;;5007278;28;20270;-70
2021/06/25 12:24:49;;;;;;;26.53;24.00;;;22.60;99.90;;;;;;5020727;28;20266;-70
2021/06/25 12:27:16;;;;;;;25.67;23.23;;;22.80;99.90;;;;;;5014977;28;20494;-71
2021/06/25 12:29:42;;;;;;;23.80;21.50;;;23.10;99.90;;;;;;5023666;28;20449;-71
2021/06/25 12:32:17;;;;;;;23.87;21.33;;;23.60;99.90;;;;;;5020813;28;20426;-71
2021/06/25 12:34:43;;;;;;;21.50;19.60;;;24.30;99.90;;;;;;5022037;28;20422;-69
2021/06/25 12:37:09;;;;;;;20.37;18.60;;;24.60;99.90;;;;;;5013242;28;20433;-71
2021/06/25 12:39:34;;;;;;;21.40;19.57;;;24.80;99.90;;;;;;5029100;28;20735;-70
2021/06/25 12:42:01;;;;;;;20.83;18.97;;;24.80;99.90;;;;;;5011052;28;20195;-73
2021/06/25 12:44:27;;;;;;;19.70;17.90;;;24.80;99.90;;;;;;5023417;28;20211;-71